createdAt,value
2022-12-18T00:01:30.362Z,-12.43
2022-12-18T00:03:59.416Z,-12.42
2022-12-18T00:06:30.706Z,-12.60
2022-12-18T00:09:01.879Z,-12.36
2022-12-18T00:11:33.007Z,-12.44
2022-12-18T00:14:02.593Z,-12.28
2022-12-18T00:16:34.165Z,-12.18
2022-12-18T00:19:03.301Z,-12.24
2022-12-18T00:21:33.745Z,-12.61
2022-12-18T00:24:03.729Z,-12.79
2022-12-18T00:26:35.071Z,-12.89
2022-12-18T00:29:06.960Z,-13.02
2022-12-18T00:31:36.617Z,-13.04
2022-12-18T00:34:05.903Z,-13.00
2022-12-18T00:36:36.540Z,-12.62
2022-12-18T00:39:07.543Z,-12.56
2022-12-18T00:41:53.651Z,-12.71
2022-12-18T00:44:22.516Z,-12.71
2022-12-18T00:46:51.270Z,-12.54
2022-12-18T00:49:21.577Z,-12.77
2022-12-18T00:51:50.957Z,-12.44
2022-12-18T00:54:21.000Z,-12.45
2022-12-18T00:56:50.102Z,-12.71
2022-12-18T00:59:20.175Z,-12.49
2022-12-18T01:01:49.408Z,-12.65
2022-12-18T01:04:18.261Z,-12.37
2022-12-18T01:06:47.671Z,-12.24
2022-12-18T01:09:16.514Z,-12.27
2022-12-18T01:11:46.834Z,-12.06
2022-12-18T01:14:15.507Z,-12.63
2022-12-18T01:16:44.162Z,-12.95
2022-12-18T01:19:13.713Z,-12.81
2022-12-18T01:21:42.431Z,-12.51
2022-12-18T01:24:14.721Z,-12.41
2022-12-18T01:26:45.450Z,-12.47
2022-12-18T01:29:16.444Z,-12.32
2022-12-18T01:31:44.976Z,-12.60
2022-12-18T01:34:13.510Z,-12.62
2022-12-18T01:36:42.988Z,-12.82
2022-12-18T01:39:14.594Z,-12.75
2022-12-18T01:42:03.820Z,-13.19
2022-12-18T01:44:59.765Z,-13.33
2022-12-18T01:47:46.271Z,-13.31
2022-12-18T01:50:18.379Z,-12.94
2022-12-18T01:52:49.788Z,-12.72
2022-12-18T01:55:21.719Z,-12.59
2022-12-18T01:57:54.369Z,-12.83
2022-12-18T02:00:25.536Z,-12.90
2022-12-18T02:02:55.293Z,-13.07
2022-12-18T02:05:34.829Z,-13.44
2022-12-18T02:08:12.914Z,-13.32
2022-12-18T02:10:50.792Z,-13.96
2022-12-18T02:13:35.408Z,-13.91
2022-12-18T02:16:14.415Z,-13.74
2022-12-18T02:18:47.683Z,-13.72
2022-12-18T02:21:27.854Z,-13.35
2022-12-18T02:24:08.685Z,-13.22
2022-12-18T02:26:44.283Z,-13.92
2022-12-18T02:29:18.804Z,-14.10
2022-12-18T02:31:53.242Z,-14.66
2022-12-18T02:34:24.691Z,-14.48
2022-12-18T02:36:55.702Z,-14.54
2022-12-18T02:39:26.086Z,-14.82
2022-12-18T02:42:09.032Z,-14.53
2022-12-18T02:44:45.731Z,-14.43
2022-12-18T02:47:19.550Z,-14.46
2022-12-18T02:50:00.357Z,-14.58
2022-12-18T02:52:41.492Z,-14.93
2022-12-18T02:55:23.621Z,-15.13
2022-12-18T02:58:01.651Z,-14.71
2022-12-18T03:00:41.817Z,-14.54
2022-12-18T03:03:16.781Z,-14.43
2022-12-18T03:05:52.861Z,-14.29
2022-12-18T03:08:24.236Z,-14.91
2022-12-18T03:10:58.210Z,-15.28
2022-12-18T03:13:34.470Z,-15.78
2022-12-18T03:16:07.887Z,-16.10
2022-12-18T03:18:41.305Z,-16.37
2022-12-18T03:21:13.218Z,-16.58
2022-12-18T03:23:47.119Z,-16.83
2022-12-18T03:26:21.423Z,-17.02
2022-12-18T03:29:00.013Z,-17.04
2022-12-18T03:31:32.010Z,-17.09
2022-12-18T03:34:09.577Z,-16.87
2022-12-18T03:36:43.956Z,-16.29
2022-12-18T03:39:13.495Z,-16.64
2022-12-18T03:41:49.950Z,-16.69
2022-12-18T03:44:38.813Z,-16.20
2022-12-18T03:47:12.646Z,-16.40
2022-12-18T03:49:48.844Z,-16.08
2022-12-18T03:52:25.553Z,-16.01
2022-12-18T03:54:56.452Z,-16.25
2022-12-18T03:57:32.582Z,-16.26
2022-12-18T04:00:04.606Z,-16.47
2022-12-18T04:02:46.522Z,-16.21
2022-12-18T04:05:22.340Z,-16.30
2022-12-18T04:07:52.442Z,-16.07
2022-12-18T04:10:28.265Z,-16.07
2022-12-18T04:12:59.551Z,-16.52
2022-12-18T04:15:36.121Z,-16.87
2022-12-18T04:18:06.531Z,-17.29
2022-12-18T04:20:44.809Z,-17.44
2022-12-18T04:23:14.224Z,-17.15
2022-12-18T04:25:45.172Z,-16.95
2022-12-18T04:28:22.087Z,-16.60
2022-12-18T04:30:55.571Z,-16.95
2022-12-18T04:33:24.869Z,-17.57
2022-12-18T04:35:53.870Z,-18.11
2022-12-18T04:38:22.946Z,-18.38
2022-12-18T04:40:59.228Z,-18.04
2022-12-18T04:43:29.571Z,-17.66
2022-12-18T04:46:06.135Z,-17.49
2022-12-18T04:48:35.402Z,-17.44
2022-12-18T04:51:05.259Z,-17.23
2022-12-18T04:53:34.906Z,-17.08
2022-12-18T04:56:08.648Z,-16.91
2022-12-18T04:58:41.930Z,-16.61
2022-12-18T05:01:13.241Z,-16.76
2022-12-18T05:03:43.053Z,-16.77
2022-12-18T05:06:12.826Z,-16.77
2022-12-18T05:08:50.461Z,-16.95
2022-12-18T05:11:21.637Z,-16.78
2022-12-18T05:13:50.589Z,-16.83
2022-12-18T05:16:21.015Z,-17.85
2022-12-18T05:18:54.778Z,-17.21
2022-12-18T05:21:26.555Z,-17.33
2022-12-18T05:23:55.654Z,-17.40
2022-12-18T05:26:27.451Z,-17.31
2022-12-18T05:28:56.882Z,-17.75
2022-12-18T05:31:27.124Z,-17.40
2022-12-18T05:33:58.741Z,-17.30
2022-12-18T05:36:27.731Z,-17.20
2022-12-18T05:38:56.982Z,-17.51
2022-12-18T05:41:26.052Z,-17.46
2022-12-18T05:43:57.663Z,-17.63
2022-12-18T05:46:30.987Z,-17.67
2022-12-18T05:49:04.954Z,-17.64
2022-12-18T05:51:36.999Z,-17.60
2022-12-18T05:54:05.980Z,-17.66
2022-12-18T05:56:38.003Z,-17.74
2022-12-18T05:59:12.988Z,-17.74
2022-12-18T06:01:46.809Z,-17.70
2022-12-18T06:04:18.533Z,-17.66
2022-12-18T06:06:50.116Z,-17.54
2022-12-18T06:09:22.274Z,-17.39
2022-12-18T06:11:51.273Z,-17.37
2022-12-18T06:14:22.876Z,-17.37
2022-12-18T06:16:55.675Z,-17.22
2022-12-18T06:19:27.545Z,-17.23
2022-12-18T06:21:59.014Z,-17.18
2022-12-18T06:24:34.470Z,-17.16
2022-12-18T06:27:06.501Z,-17.26
2022-12-18T06:29:35.553Z,-17.21
2022-12-18T06:32:06.298Z,-17.30
2022-12-18T06:34:35.399Z,-17.42
2022-12-18T06:37:04.201Z,-17.71
2022-12-18T06:39:35.742Z,-17.95
2022-12-18T06:42:07.818Z,-17.95
2022-12-18T06:44:39.420Z,-18.14
2022-12-18T06:47:12.480Z,-18.13
2022-12-18T06:49:41.147Z,-18.37
2022-12-18T06:52:10.065Z,-18.43
2022-12-18T06:54:39.170Z,-18.44
2022-12-18T06:57:07.883Z,-18.48
2022-12-18T06:59:42.294Z,-18.46
2022-12-18T07:02:17.748Z,-18.59
2022-12-18T07:04:46.792Z,-18.51
2022-12-18T07:07:18.657Z,-18.60
2022-12-18T07:09:47.394Z,-18.69
2022-12-18T07:12:15.815Z,-18.69
2022-12-18T07:14:44.422Z,-18.68
2022-12-18T07:17:14.697Z,-18.80
2022-12-18T07:19:43.108Z,-18.80
2022-12-18T07:22:11.573Z,-18.94
2022-12-18T07:24:40.171Z,-19.23
2022-12-18T07:27:08.755Z,-19.50
2022-12-18T07:29:39.098Z,-19.58
2022-12-18T07:32:08.254Z,-19.61
2022-12-18T07:34:38.750Z,-19.35
2022-12-18T07:37:07.589Z,-19.55
2022-12-18T07:39:36.215Z,-19.60
2022-12-18T07:42:22.420Z,-19.52
2022-12-18T07:44:51.935Z,-19.46
2022-12-18T07:47:20.654Z,-19.55
2022-12-18T07:49:51.199Z,-19.44
2022-12-18T07:52:24.299Z,-19.23
2022-12-18T07:54:54.594Z,-18.89
2022-12-18T07:57:48.809Z,-18.65
2022-12-18T08:00:13.487Z,-18.21
2022-12-18T08:02:42.411Z,-18.14
2022-12-18T08:05:13.449Z,-18.59
2022-12-18T08:07:42.224Z,-18.61
2022-12-18T08:10:11.228Z,-18.71
2022-12-18T08:12:39.749Z,-18.52
2022-12-18T08:15:09.484Z,-18.53
2022-12-18T08:17:38.093Z,-18.43
2022-12-18T08:20:07.054Z,-18.18
2022-12-18T08:22:40.369Z,-17.87
2022-12-18T08:25:10.182Z,-17.58
2022-12-18T08:27:38.633Z,-17.31
2022-12-18T08:30:08.574Z,-17.08
2022-12-18T08:32:37.653Z,-17.33
2022-12-18T08:35:09.220Z,-17.31
2022-12-18T08:37:40.690Z,-16.98
2022-12-18T08:40:11.434Z,-17.39
2022-12-18T08:42:57.471Z,-17.53
2022-12-18T08:45:27.784Z,-18.12
2022-12-18T08:47:56.938Z,-18.38
2022-12-18T08:50:25.971Z,-18.11
2022-12-18T08:52:57.139Z,-17.74
2022-12-18T08:55:26.315Z,-17.92
2022-12-18T08:57:55.132Z,-18.18
2022-12-18T09:00:24.526Z,-17.83
2022-12-18T09:02:53.541Z,-17.91
2022-12-18T09:05:22.506Z,-18.07
2022-12-18T09:07:51.430Z,-17.75
2022-12-18T09:10:21.522Z,-17.86
2022-12-18T09:12:51.077Z,-18.04
2022-12-18T09:15:19.718Z,-18.30
2022-12-18T09:17:54.074Z,-18.28
2022-12-18T09:20:22.784Z,-18.22
2022-12-18T09:22:51.264Z,-17.87
2022-12-18T09:25:21.578Z,-17.86
2022-12-18T09:27:53.882Z,-17.80
2022-12-18T09:30:22.530Z,-18.05
2022-12-18T09:32:51.250Z,-18.01
2022-12-18T09:35:19.892Z,-17.88
2022-12-18T09:37:48.551Z,-17.75
2022-12-18T09:40:18.723Z,-17.67
2022-12-18T09:42:55.693Z,-17.57
2022-12-18T09:45:26.093Z,-17.54
2022-12-18T09:47:57.872Z,-17.61
2022-12-18T09:50:33.477Z,-17.52
2022-12-18T09:53:09.095Z,-17.46
2022-12-18T09:55:42.055Z,-17.40
2022-12-18T09:58:22.903Z,-17.21
2022-12-18T10:00:54.942Z,-17.26
2022-12-18T10:03:24.312Z,-17.19
2022-12-18T10:06:03.884Z,-17.07
2022-12-18T10:08:41.037Z,-16.97
2022-12-18T10:11:30.910Z,-17.03
2022-12-18T10:14:09.697Z,-16.77
2022-12-18T10:16:50.117Z,-16.19
2022-12-18T10:19:28.545Z,-15.12
2022-12-18T10:22:06.381Z,-15.03
2022-12-18T10:24:44.816Z,-14.77
2022-12-18T10:27:17.456Z,-14.36
2022-12-18T10:29:48.819Z,-13.86
2022-12-18T10:32:19.600Z,-13.49
2022-12-18T10:34:49.457Z,-13.20
2022-12-18T10:37:21.016Z,-12.96
2022-12-18T10:40:06.997Z,-12.72
2022-12-18T10:42:35.582Z,-12.54
2022-12-18T10:45:11.105Z,-12.36
2022-12-18T10:47:45.904Z,-12.18
2022-12-18T10:51:01.765Z,-12.06
2022-12-18T10:53:25.562Z,-11.94
2022-12-18T10:55:56.180Z,-11.77
2022-12-18T10:58:27.474Z,-11.63
2022-12-18T11:01:22.635Z,-11.58
2022-12-18T11:04:04.404Z,-11.52
2022-12-18T11:06:33.095Z,-11.36
2022-12-18T11:09:10.996Z,-11.31
2022-12-18T11:11:42.050Z,-11.19
2022-12-18T11:14:20.682Z,-11.05
2022-12-18T11:19:43.547Z,-10.96
2022-12-18T11:22:22.954Z,-10.82
2022-12-18T11:25:30.234Z,-10.77
2022-12-18T11:27:52.179Z,-10.65
2022-12-18T11:30:26.858Z,-10.59
2022-12-18T11:33:01.057Z,-10.54
2022-12-18T11:35:42.291Z,-10.38
2022-12-18T11:38:21.371Z,-10.30
2022-12-18T11:40:57.622Z,-10.17
2022-12-18T11:43:31.301Z,-10.14
2022-12-18T11:46:06.289Z,-10.13
2022-12-18T11:48:44.080Z,-10.02
2022-12-18T11:51:19.139Z,-9.98
2022-12-18T11:53:47.880Z,-9.99
2022-12-18T11:56:32.341Z,-9.95
2022-12-18T11:59:12.142Z,-9.84
2022-12-18T12:01:51.172Z,-9.73
2022-12-18T12:04:50.698Z,-9.68
2022-12-18T12:07:36.115Z,-9.48
2022-12-18T12:10:17.119Z,-9.46
2022-12-18T12:12:55.179Z,-9.44
2022-12-18T12:15:36.983Z,-9.23
2022-12-18T12:18:16.509Z,-9.14
2022-12-18T12:20:56.515Z,-9.08
2022-12-18T12:23:37.466Z,-9.01
2022-12-18T12:26:08.886Z,-8.97
2022-12-18T12:28:51.981Z,-8.94
2022-12-18T12:31:32.488Z,-8.87
2022-12-18T12:34:12.410Z,-8.81
2022-12-18T12:36:52.654Z,-8.85
2022-12-18T12:39:26.062Z,-8.74
2022-12-18T12:42:12.243Z,-8.79
2022-12-18T12:44:45.534Z,-8.91
2022-12-18T12:47:21.996Z,-8.94
2022-12-18T12:49:52.002Z,-8.95
2022-12-18T12:52:30.796Z,-8.93
2022-12-18T12:55:00.811Z,-8.99
2022-12-18T12:57:37.476Z,-9.06
2022-12-18T13:00:10.811Z,-9.04
2022-12-18T13:02:49.994Z,-9.11
2022-12-18T13:05:25.413Z,-9.07
2022-12-18T13:08:01.136Z,-9.12
2022-12-18T13:10:35.677Z,-9.15
2022-12-18T13:13:08.937Z,-9.15
2022-12-18T13:15:42.185Z,-9.21
2022-12-18T13:18:18.270Z,-9.28
2022-12-18T13:20:53.637Z,-9.39
2022-12-18T13:23:41.886Z,-9.41
2022-12-18T13:26:41.320Z,-9.37
2022-12-18T13:29:10.031Z,-9.46
2022-12-18T13:32:21.435Z,-9.48
2022-12-18T13:34:52.076Z,-9.50
2022-12-18T13:37:43.212Z,-9.42
2022-12-18T13:41:00.672Z,-9.20
2022-12-18T13:43:45.149Z,-8.83
2022-12-18T13:46:22.909Z,-8.70
2022-12-18T13:48:59.075Z,-8.59
2022-12-18T13:51:28.936Z,-8.69
2022-12-18T13:54:00.932Z,-8.71
2022-12-18T13:56:32.470Z,-8.64
2022-12-18T13:59:23.269Z,-8.59
2022-12-18T14:01:56.201Z,-8.70
2022-12-18T14:04:30.587Z,-8.77
2022-12-18T14:07:06.129Z,-8.84
2022-12-18T14:09:38.895Z,-8.81
2022-12-18T14:12:34.568Z,-8.77
2022-12-18T14:15:05.051Z,-8.76
2022-12-18T14:17:34.287Z,-8.79
2022-12-18T14:20:03.851Z,-8.67
2022-12-18T14:22:33.393Z,-8.59
2022-12-18T14:25:18.103Z,-8.50
2022-12-18T14:27:48.413Z,-8.29
2022-12-18T14:30:30.627Z,-8.19
2022-12-18T14:33:07.090Z,-8.04
2022-12-18T14:35:37.211Z,-7.89
2022-12-18T14:38:22.506Z,-7.93
2022-12-18T14:40:55.192Z,-7.90
2022-12-18T14:43:24.385Z,-7.84
2022-12-18T14:45:54.908Z,-7.79
2022-12-18T14:48:32.878Z,-7.78
2022-12-18T14:51:03.925Z,-7.72
2022-12-18T14:53:38.120Z,-7.65
2022-12-18T14:56:17.001Z,-7.49
2022-12-18T14:58:51.240Z,-7.43
2022-12-18T15:01:28.884Z,-7.51
2022-12-18T15:03:58.793Z,-7.48
2022-12-18T15:06:31.408Z,-7.35
2022-12-18T15:09:00.997Z,-7.27
2022-12-18T15:11:35.013Z,-7.09
2022-12-18T15:14:33.616Z,-7.19
2022-12-18T15:17:07.677Z,-7.06
2022-12-18T15:19:42.879Z,-7.00
2022-12-18T15:22:22.143Z,-7.11
2022-12-18T15:24:51.311Z,-7.21
2022-12-18T15:27:27.699Z,-7.16
2022-12-18T15:30:19.649Z,-7.14
2022-12-18T15:32:51.697Z,-7.09
2022-12-18T15:35:23.060Z,-7.15
2022-12-18T15:37:52.799Z,-7.11
2022-12-18T15:40:23.518Z,-6.97
2022-12-18T15:43:13.153Z,-6.72
2022-12-18T15:45:41.973Z,-6.63
2022-12-18T15:48:21.926Z,-6.43
2022-12-18T15:50:51.445Z,-6.34
2022-12-18T15:53:20.477Z,-6.27
2022-12-18T15:56:06.215Z,-6.16
2022-12-18T15:58:35.130Z,-6.02
2022-12-18T16:01:04.794Z,-6.04
2022-12-18T16:03:35.057Z,-5.99
2022-12-18T16:06:04.135Z,-5.92
2022-12-18T16:08:33.502Z,-5.70
2022-12-18T16:11:02.717Z,-5.62
2022-12-18T16:13:31.177Z,-5.52
2022-12-18T16:16:00.325Z,-5.52
2022-12-18T16:18:29.244Z,-5.53
2022-12-18T16:21:00.580Z,-5.51
2022-12-18T16:23:29.686Z,-5.49
2022-12-18T16:25:58.069Z,-5.47
2022-12-18T16:28:26.603Z,-5.47
2022-12-18T16:30:55.255Z,-5.33
2022-12-18T16:33:23.868Z,-5.32
2022-12-18T16:35:54.684Z,-5.33
2022-12-18T16:38:25.180Z,-5.26
2022-12-18T16:41:11.059Z,-5.11
2022-12-18T16:43:40.171Z,-5.12
2022-12-18T16:46:09.292Z,-5.12
2022-12-18T16:48:38.778Z,-5.14
2022-12-18T16:51:07.759Z,-5.07
2022-12-18T16:53:38.551Z,-5.08
2022-12-18T16:56:07.495Z,-5.02
2022-12-18T16:58:36.511Z,-5.00
2022-12-18T17:01:11.031Z,-5.05
2022-12-18T17:03:40.122Z,-5.05
2022-12-18T17:06:09.461Z,-5.03
2022-12-18T17:08:40.862Z,-5.00
2022-12-18T17:11:09.583Z,-5.00
2022-12-18T17:13:39.008Z,-4.97
2022-12-18T17:16:09.438Z,-4.99
2022-12-18T17:18:38.324Z,-4.98
2022-12-18T17:21:09.732Z,-5.02
2022-12-18T17:23:40.605Z,-5.00
2022-12-18T17:26:11.183Z,-4.99
2022-12-18T17:28:41.502Z,-4.98
2022-12-18T17:31:15.674Z,-4.99
2022-12-18T17:33:44.578Z,-5.01
2022-12-18T17:36:14.647Z,-5.03
2022-12-18T17:38:52.539Z,-4.98
2022-12-18T17:41:22.146Z,-4.93
2022-12-18T17:43:54.090Z,-4.88
2022-12-18T17:46:24.169Z,-4.92
2022-12-18T17:48:53.750Z,-4.89
2022-12-18T17:51:24.558Z,-4.83
2022-12-18T17:53:57.579Z,-4.81
2022-12-18T17:56:27.800Z,-4.76
2022-12-18T17:58:56.658Z,-4.67
2022-12-18T18:01:27.736Z,-4.60
2022-12-18T18:03:57.362Z,-4.49
2022-12-18T18:06:26.210Z,-4.50
2022-12-18T18:08:57.838Z,-4.49
2022-12-18T18:11:44.418Z,-4.47
2022-12-18T18:14:21.217Z,-4.48
2022-12-18T18:16:52.458Z,-4.46
2022-12-18T18:19:22.218Z,-4.42
2022-12-18T18:21:53.000Z,-4.35
2022-12-18T18:24:24.362Z,-4.23
2022-12-18T18:26:53.560Z,-4.20
2022-12-18T18:29:25.391Z,-4.14
2022-12-18T18:31:55.715Z,-4.09
2022-12-18T18:34:26.560Z,-3.97
2022-12-18T18:36:55.218Z,-4.00
2022-12-18T18:39:25.625Z,-4.04
2022-12-18T18:41:54.750Z,-4.03
2022-12-18T18:44:26.326Z,-4.01
2022-12-18T18:46:56.960Z,-4.07
2022-12-18T18:49:28.168Z,-4.06
2022-12-18T18:51:59.455Z,-4.03
2022-12-18T18:54:31.373Z,-4.02
2022-12-18T18:59:50.964Z,-4.02
2022-12-18T19:02:19.718Z,-4.00
2022-12-18T19:04:51.561Z,-4.00
2022-12-18T19:07:30.188Z,-3.98
2022-12-18T19:10:05.254Z,-3.96
2022-12-18T19:12:53.221Z,-4.00
2022-12-18T19:15:23.584Z,-4.05
2022-12-18T19:17:52.208Z,-3.96
2022-12-18T19:20:21.352Z,-3.94
2022-12-18T19:22:55.623Z,-3.92
2022-12-18T19:25:40.376Z,-3.94
2022-12-18T19:28:22.167Z,-3.84
2022-12-18T19:30:58.690Z,-3.69
2022-12-18T19:33:45.026Z,-3.60
2022-12-18T19:36:16.244Z,-3.61
2022-12-18T19:38:45.826Z,-3.50
2022-12-18T19:41:16.990Z,-3.43
2022-12-18T19:43:47.853Z,-3.33
2022-12-18T19:46:19.469Z,-3.23
2022-12-18T19:48:48.712Z,-3.22
2022-12-18T19:51:20.093Z,-3.18
2022-12-18T19:53:50.553Z,-3.13
2022-12-18T19:56:26.237Z,-3.10
2022-12-18T19:58:55.874Z,-3.10
2022-12-18T20:01:26.704Z,-3.10
2022-12-18T20:03:57.631Z,-3.13
2022-12-18T20:06:29.756Z,-3.14
2022-12-18T20:09:00.583Z,-3.12
2022-12-18T20:11:31.776Z,-3.13
2022-12-18T20:14:00.449Z,-3.17
2022-12-18T20:16:29.561Z,-3.20
2022-12-18T20:18:59.931Z,-3.25
2022-12-18T20:21:28.923Z,-3.22
2022-12-18T20:23:59.226Z,-3.21
2022-12-18T20:26:27.958Z,-3.23
2022-12-18T20:28:57.893Z,-3.29
2022-12-18T20:31:26.556Z,-3.35
2022-12-18T20:33:59.655Z,-3.36
2022-12-18T20:36:30.795Z,-3.26
2022-12-18T20:39:02.793Z,-3.27
2022-12-18T20:41:38.197Z,-3.20
2022-12-18T20:44:23.040Z,-3.19
2022-12-18T20:46:55.025Z,-3.19
2022-12-18T20:49:24.022Z,-3.14
2022-12-18T20:51:53.722Z,-3.15
2022-12-18T20:54:22.626Z,-3.06
2022-12-18T20:56:51.504Z,-3.09
2022-12-18T20:59:23.356Z,-3.04
2022-12-18T21:01:52.432Z,-2.97
2022-12-18T21:04:21.139Z,-2.90
2022-12-18T21:06:53.383Z,-2.90
2022-12-18T21:09:30.376Z,-2.79
2022-12-18T21:12:29.727Z,-2.82
2022-12-18T21:15:06.694Z,-2.79
2022-12-18T21:17:41.728Z,-2.77
2022-12-18T21:20:15.709Z,-2.74
2022-12-18T21:22:46.985Z,-2.76
2022-12-18T21:25:15.561Z,-2.69
2022-12-18T21:27:44.007Z,-2.69
2022-12-18T21:30:15.411Z,-2.65
2022-12-18T21:32:44.143Z,-2.56
2022-12-18T21:35:12.622Z,-2.50
2022-12-18T21:37:41.145Z,-2.44
2022-12-18T21:40:10.997Z,-2.40
2022-12-18T21:42:56.880Z,-2.36
2022-12-18T21:45:27.555Z,-2.32
2022-12-18T21:47:56.084Z,-2.26
2022-12-18T21:50:24.654Z,-2.23
2022-12-18T21:52:53.439Z,-2.24
2022-12-18T21:55:21.939Z,-2.16
2022-12-18T21:57:50.561Z,-2.13
2022-12-18T22:00:19.909Z,-2.12
2022-12-18T22:03:17.774Z,-2.07
2022-12-18T22:05:39.054Z,-2.08
2022-12-18T22:08:07.759Z,-2.02
2022-12-18T22:10:36.458Z,-2.00
2022-12-18T22:13:05.570Z,-1.96
2022-12-18T22:15:34.313Z,-1.93
2022-12-18T22:18:04.826Z,-1.92
2022-12-18T22:20:33.442Z,-1.93
2022-12-18T22:23:05.833Z,-1.85
2022-12-18T22:25:35.339Z,-1.82
2022-12-18T22:28:24.984Z,-1.88
2022-12-18T22:30:57.731Z,-1.88
2022-12-18T22:33:30.460Z,-1.86
2022-12-18T22:35:59.171Z,-1.90
2022-12-18T22:38:27.744Z,-1.88
2022-12-18T22:40:56.716Z,-1.88
2022-12-18T22:43:25.715Z,-1.89
2022-12-18T22:45:54.325Z,-1.92
2022-12-18T22:48:23.081Z,-1.93
2022-12-18T22:50:56.278Z,-1.92
2022-12-18T22:53:28.802Z,-1.97
2022-12-18T22:56:02.423Z,-1.98
2022-12-18T22:58:31.039Z,-1.97
2022-12-18T23:00:59.535Z,-1.99
2022-12-18T23:03:28.203Z,-2.01
2022-12-18T23:06:05.977Z,-1.97
2022-12-18T23:08:34.698Z,-1.98
2022-12-18T23:11:03.595Z,-1.98
2022-12-18T23:13:32.196Z,-1.95
2022-12-18T23:16:00.845Z,-1.96
2022-12-18T23:18:29.401Z,-1.98
2022-12-18T23:20:58.026Z,-1.99
2022-12-18T23:23:30.049Z,-2.00
2022-12-18T23:26:03.354Z,-2.00
2022-12-18T23:28:34.196Z,-2.02
2022-12-18T23:31:07.307Z,-2.02
2022-12-18T23:33:36.265Z,-2.02
2022-12-18T23:36:06.336Z,-2.00
2022-12-18T23:38:36.895Z,-1.97
2022-12-18T23:41:10.510Z,-1.97
2022-12-18T23:43:39.460Z,-1.95
2022-12-18T23:46:12.554Z,-1.95
2022-12-18T23:48:41.389Z,-1.92
2022-12-18T23:51:11.196Z,-1.88
2022-12-18T23:53:42.560Z,-1.86
2022-12-18T23:56:12.276Z,-1.82
2022-12-18T23:58:41.076Z,-1.77
